Ealing Mini Mile
Skip Navigation Links
Results
Live Leaderboard
Ealing Half Event Results
Race Stats
Smartphone Results
Race Website
23 September 2017
HyperLink
Click your name for detailed results
Page 1 of 5 (247 items)
[1]2345
Pos
Bib No
Fav
Share
Print
Name
Gun Time
Chip Time
Category
Cat Pos
Gender
Gen Pos
Club
Pace
110200Jack GLEESON6:42.96:42.96-71Male1  8.9 m/hr
210282Phoenix OFFIAH6:55.66:55.66-72Male2PERIVALE PARK ATHLETICS TRACK 8.7 m/hr
311024Daniel LENNON7:03.37:03.310-111Male3  8.5 m/hr
410188John OWENS7:04.17:03.66-73Male4  8.5 m/hr
510242Louis RYDER7:13.87:13.86-74Male5  8.3 m/hr
610153Mayeul MORVAN7:15.47:15.46-75Male6EVERYONE ACTIVE 8.3 m/hr
710152Ronan ALCOCK7:22.67:22.26-76Male7  8.1 m/hr
810040Ben CADWALLADER7:24.77:24.06-77Male8  8.1 m/hr
910281Oscar HICKMAN7:29.37:29.36-78Male9  8.0 m/hr
1010208Harry MCCARTHY7:30.77:30.36-79Male10  8.0 m/hr
1110255Freddie LAWRENCE7:31.87:31.86-710Male11  8.0 m/hr
1210260Charlie ELVERSTON7:33.37:33.36-711Male12  7.9 m/hr
1310265Harry TALLBOY7:36.17:34.96-712Male13  7.9 m/hr
1410251Olivia SCOTT7:40.67:40.66-71Female1  7.8 m/hr
1510063Nour Kaouk FERNANDEZ7:42.77:42.76-713Male14  7.8 m/hr
1610241Sophie DICKSON7:42.87:42.86-72Female2  7.8 m/hr
1710238James ROLAND7:43.47:43.46-714Male15  7.8 m/hr
1810168Matthew TATE7:45.87:45.86-715Male16  7.7 m/hr
1911242Edward BELTRAMI7:46.17:43.66-716Male17  7.7 m/hr
2010271Joseph SERCOMBE7:47.47:47.46-717Male18  7.7 m/hr
2110166Leo ALEXANIAN7:51.07:50.56-718Male19EALING EAGLES 7.6 m/hr
2210144Linus BREEN7:53.97:53.96-719Male20  7.6 m/hr
2310167Matthew COX7:54.17:51.36-720Male21  7.6 m/hr
2410269Lucas ATTRIDGE7:55.27:55.26-721Male22  7.6 m/hr
2510229Zacharia Van Der GRAAF7:55.97:55.96-722Male23  7.6 m/hr
2610207Patrick KEATING7:56.77:56.76-723Male24  7.6 m/hr
2710110Aidan QUINN7:57.97:57.96-724Male25EALING EAGLES 7.5 m/hr
2810025Jack HAYWARD7:58.77:56.46-725Male26  7.5 m/hr
2910125Leila NEWTH8:00.98:00.76-73Female3  7.5 m/hr
3010230William POWELL8:03.48:02.36-726Male27  7.4 m/hr
3110206Lucas GREENHALGH8:03.48:03.46-727Male28  7.4 m/hr
3210306Evan WHITFIELD8:05.48:05.48s1Male29  7.4 m/hr
3310157Finn BISSETT8:06.58:06.56-728Male30  7.4 m/hr
3410083Theo STROUTS8:10.98:10.96-729Male31  7.3 m/hr
3510244Aaron WRIGHT8:11.58:09.66-74Female4  7.3 m/hr
3610048Tommy HOEY8:13.38:10.56-730Male32  7.3 m/hr
3711707Kaelan O'SULLIVAN8:14.58:14.56-731Male33  7.3 m/hr
3810235Leonidas ANDREOU8:14.78:14.76-732Male34  7.3 m/hr
3910105Ashley THOMSON8:14.78:11.76-733Male35  7.3 m/hr
4010248Dylan FARMER8:15.68:14.86-734Male36  7.3 m/hr
4110132Tiago HALL8:16.08:14.86-735Male37  7.3 m/hr
4210116Alessandro MODICA8:16.48:16.06-736Male38  7.3 m/hr
4310043Sofia BENNETT8:19.28:19.26-75Female5  7.2 m/hr
4410089George SABER8:19.68:19.66-737Male39  7.2 m/hr
4510196Aidan DEVLIN8:19.88:18.86-738Male40  7.2 m/hr
4610171Barnaby BRAMWELL8:20.68:20.26-739Male41EALING RUNNING CLUB 7.2 m/hr
4710236Amaya MASON8:21.38:19.46-76Female6  7.2 m/hr
4810104Esme GOWLLAND8:23.18:23.16-77Female7  7.2 m/hr
4910002Sebastian DOMARADZKI8:23.58:15.76-740Male42  7.1 m/hr
5010159Kitty MURPHY8:24.98:23.66-78Female8  7.1 m/hr
Page 1 of 5 (247 items)
[1]2345
fb